Allandale, Florida
Current Conditions -  °F | °C
As of 7:53 PM on Monday 24 Nov 2014 (Local Time) from KDAB Reporting Station
Broken Clouds Broken Clouds  
Wind Chill: 75°   Ceiling: 15000
Heat Index: 75°   Visibility: 10mi
Dew Point: 70°   Wind: 3mph
Humidity: 84%   Direction: 170°S
Pressure: 29.98"   Gusts: NA
Location:  29.1486°N, 81.0301°W
Report Text: KDAB 250053Z 17003KT 10SM BKN150 24/21 A2998 RMK AO2 SLP150 T02390211
Loading
Personal Weather Stations






























Interactive Weather Map New forecast layout! Learn more

10-Day Weather Forecast

Advertisements
Track Severe Weather on mobile